createdAt,value
2019-02-28T17:11:23.945Z,99992.81
2019-02-28T17:13:54.739Z,99988.86
2019-02-28T17:16:25.563Z,100002.22
2019-02-28T17:18:56.806Z,100014.30
2019-02-28T17:21:25.586Z,100006.63
2019-02-28T17:23:54.723Z,100005.45
2019-02-28T17:26:28.402Z,100002.31
2019-02-28T17:28:58.069Z,100004.34
2019-02-28T17:31:31.779Z,99997.20
2019-02-28T17:34:01.011Z,100001.88
2019-02-28T17:36:30.143Z,100009.23
2019-02-28T17:38:59.320Z,100000.08
2019-02-28T17:41:28.507Z,100009.55
2019-02-28T17:44:26.411Z,100021.49
2019-02-28T17:47:01.389Z,100023.13
2019-02-28T17:50:05.765Z,100019.75
2019-02-28T17:52:50.649Z,100028.06
2019-02-28T17:55:42.651Z,100021.57
2019-02-28T17:58:34.567Z,100035.86
2019-02-28T18:01:34.860Z,100033.61
2019-02-28T18:05:00.090Z,100031.27
2019-02-28T18:08:04.236Z,100033.48
2019-02-28T18:11:23.228Z,100026.44
2019-02-28T18:14:14.353Z,100022.45
2019-02-28T18:17:18.517Z,100004.97
2019-02-28T18:20:20.997Z,100008.09
2019-02-28T18:23:06.433Z,100004.47
2019-02-28T18:26:04.529Z,100000.66
2019-02-28T18:28:58.772Z,99995.23
2019-02-28T18:31:28.010Z,100001.55
2019-02-28T18:34:00.090Z,99991.19
2019-02-28T18:36:33.330Z,99988.08
2019-02-28T18:39:02.698Z,99991.25
2019-02-28T18:41:31.859Z,99988.61
2019-02-28T18:44:03.576Z,99990.25
2019-02-28T18:46:31.927Z,99983.93
2019-02-28T18:49:01.170Z,99985.70
2019-02-28T18:51:32.097Z,99992.23
2019-02-28T18:54:01.388Z,99982.50
2019-02-28T18:56:30.574Z,99975.07
2019-02-28T18:58:59.693Z,99976.36
2019-02-28T19:01:29.059Z,99984.10
2019-02-28T19:03:58.209Z,99981.39
2019-02-28T19:06:27.370Z,99981.31
2019-02-28T19:08:56.528Z,99984.67
2019-02-28T19:11:25.695Z,99984.70
2019-02-28T19:13:56.507Z,99981.84
2019-02-28T19:16:25.734Z,99980.74
2019-02-28T19:18:55.085Z,99979.83
2019-02-28T19:21:24.248Z,99978.57
2019-02-28T19:23:53.399Z,99981.56
2019-02-28T19:26:22.544Z,99978.77
2019-02-28T19:28:51.684Z,99980.14
2019-02-28T19:31:20.866Z,99978.13
2019-02-28T19:33:50.095Z,99971.20
2019-02-28T19:36:19.303Z,99971.19
2019-02-28T19:38:48.494Z,99972.73
2019-02-28T19:41:17.732Z,99969.83
2019-02-28T19:43:46.878Z,99964.16
2019-02-28T19:46:16.083Z,99962.98
2019-02-28T19:48:45.242Z,99956.77
2019-02-28T19:51:17.405Z,99957.77
2019-02-28T19:53:46.577Z,99965.82
2019-02-28T19:56:15.718Z,99954.83
2019-02-28T19:58:44.978Z,99954.40
2019-02-28T20:01:18.919Z,99948.03
2019-02-28T20:03:44.987Z,99941.80
2019-02-28T20:06:14.146Z,99937.50
2019-02-28T20:08:43.303Z,99933.05
2019-02-28T20:11:12.543Z,99921.48
2019-02-28T20:13:41.754Z,99924.21
2019-02-28T20:16:10.944Z,99918.13
2019-02-28T20:18:40.140Z,99929.22
2019-02-28T20:21:09.538Z,99933.98
2019-02-28T20:23:38.719Z,99932.02
2019-02-28T20:26:07.921Z,99928.98
2019-02-28T20:28:37.104Z,99936.55
2019-02-28T20:31:06.452Z,99947.33
2019-02-28T20:33:35.640Z,99939.68
2019-02-28T20:36:07.156Z,99937.84
2019-02-28T20:38:36.309Z,99937.06
2019-02-28T20:41:05.458Z,99940.69
2019-02-28T20:43:34.634Z,99936.38
2019-02-28T20:46:03.818Z,99938.13
2019-02-28T20:48:32.933Z,99942.84
2019-02-28T20:51:02.095Z,99938.88
2019-02-28T20:53:31.241Z,99940.67
2019-02-28T20:56:01.052Z,99933.81
2019-02-28T20:58:34.770Z,99925.44
2019-02-28T21:01:04.362Z,99935.89
2019-02-28T21:03:33.539Z,99928.95
2019-02-28T21:06:02.734Z,99921.22
2019-02-28T21:08:31.883Z,99920.62
2019-02-28T21:11:01.055Z,99920.94
2019-02-28T21:13:30.205Z,99910.59
2019-02-28T21:15:59.379Z,99910.18
2019-02-28T21:18:28.518Z,99903.27
2019-02-28T21:20:57.666Z,99897.81
2019-02-28T21:23:26.845Z,99903.16
2019-02-28T21:25:57.344Z,99900.95
2019-02-28T21:28:26.587Z,99899.46
2019-02-28T21:30:58.348Z,99896.61
2019-02-28T21:33:27.475Z,99890.97
2019-02-28T21:35:56.683Z,99893.59
2019-02-28T21:38:25.817Z,99894.14
2019-02-28T21:40:55.138Z,99883.45
2019-02-28T21:43:24.296Z,99889.78
2019-02-28T21:45:53.492Z,99883.09
2019-02-28T21:48:22.608Z,99880.95
2019-02-28T21:50:51.794Z,99880.56
2019-02-28T21:53:20.964Z,99881.77
2019-02-28T21:55:50.104Z,99879.24
2019-02-28T21:58:19.262Z,99875.38
2019-02-28T22:00:48.402Z,99871.51
2019-02-28T22:03:17.570Z,99865.91
2019-02-28T22:05:46.769Z,99868.38
2019-02-28T22:08:15.940Z,99862.62
2019-02-28T22:10:45.284Z,99863.77
2019-02-28T22:13:14.441Z,99853.97
2019-02-28T22:15:43.579Z,99853.78
2019-02-28T22:18:13.061Z,99853.61
2019-02-28T22:20:42.193Z,99847.66
2019-02-28T22:23:11.457Z,99847.93
2019-02-28T22:25:40.669Z,99849.13
2019-02-28T22:28:09.970Z,99851.19
2019-02-28T22:30:43.176Z,99848.02
2019-02-28T22:33:31.890Z,99848.92
2019-02-28T22:36:05.418Z,99842.00
2019-02-28T22:38:34.558Z,99840.80
2019-02-28T22:41:03.746Z,99830.81
2019-02-28T22:43:32.889Z,99830.66
2019-02-28T22:46:02.049Z,99823.64
2019-02-28T22:48:31.195Z,99820.72
2019-02-28T22:51:00.358Z,99815.36
2019-02-28T22:53:29.571Z,99812.34
2019-02-28T22:55:58.695Z,99820.73
2019-02-28T22:58:27.850Z,99811.84
2019-02-28T23:01:11.442Z,99821.06
2019-02-28T23:03:40.669Z,99819.20
2019-02-28T23:06:09.808Z,99818.57
2019-02-28T23:08:39.018Z,99813.28
2019-02-28T23:11:08.166Z,99820.63
2019-02-28T23:13:37.406Z,99815.76
2019-02-28T23:16:06.560Z,99816.48
2019-02-28T23:18:35.691Z,99817.56
2019-02-28T23:21:04.911Z,99805.86
2019-02-28T23:23:35.690Z,99803.64
2019-02-28T23:26:13.226Z,99799.77
2019-02-28T23:28:47.138Z,99796.73
2019-02-28T23:31:30.317Z,99797.13
2019-02-28T23:34:04.331Z,99793.73
2019-02-28T23:36:33.485Z,99785.57
2019-02-28T23:39:02.622Z,99774.71
2019-02-28T23:41:31.801Z,99774.14
2019-02-28T23:44:01.031Z,99773.90
2019-02-28T23:46:30.159Z,99771.19
2019-02-28T23:48:59.328Z,99771.15
2019-02-28T23:51:28.471Z,99756.11
2019-02-28T23:53:57.631Z,99756.20
2019-02-28T23:56:26.785Z,99758.50
2019-02-28T23:58:55.968Z,99747.80
